createdAt,value
2022-11-23T00:00:37.831Z,2.44
2022-11-23T00:03:39.383Z,2.48
2022-11-23T00:06:41.324Z,2.49
2022-11-23T00:09:43.112Z,2.51
2022-11-23T00:12:45.140Z,2.52
2022-11-23T00:15:46.893Z,2.54
2022-11-23T00:18:48.862Z,2.55
2022-11-23T00:21:50.420Z,2.54
2022-11-23T00:24:52.053Z,2.54
2022-11-23T00:27:53.645Z,2.56
2022-11-23T00:30:55.191Z,2.57
2022-11-23T00:33:57.917Z,2.59
2022-11-23T00:36:59.422Z,2.60
2022-11-23T00:40:00.972Z,2.61
2022-11-23T00:43:02.547Z,2.63
2022-11-23T00:46:24.686Z,2.65
2022-11-23T00:49:26.274Z,2.69
2022-11-23T00:52:27.792Z,2.72
2022-11-23T00:55:29.348Z,2.74
2022-11-23T00:58:31.464Z,2.77
2022-11-23T01:01:37.056Z,2.78
2022-11-23T01:04:39.802Z,2.78
2022-11-23T01:07:41.372Z,2.80
2022-11-23T01:10:42.954Z,2.81
2022-11-23T01:13:44.740Z,2.82
2022-11-23T01:16:46.316Z,2.84
2022-11-23T01:19:47.852Z,2.87
2022-11-23T01:22:52.298Z,2.91
2022-11-23T01:25:56.976Z,2.92
2022-11-23T01:28:58.863Z,2.93
2022-11-23T01:32:00.404Z,2.95
2022-11-23T01:35:01.916Z,2.96
2022-11-23T01:38:03.604Z,2.98
2022-11-23T01:41:06.844Z,3.00
2022-11-23T01:44:44.235Z,3.02
2022-11-23T01:47:45.862Z,3.03
2022-11-23T01:50:51.787Z,3.04
2022-11-23T01:53:57.740Z,3.05
2022-11-23T01:57:04.693Z,3.07
2022-11-23T02:00:07.196Z,3.08
2022-11-23T02:03:09.746Z,3.10
2022-11-23T02:06:16.752Z,3.11
2022-11-23T02:09:19.001Z,3.12
2022-11-23T02:12:20.582Z,3.13
2022-11-23T02:15:22.107Z,3.14
2022-11-23T02:18:27.028Z,3.15
2022-11-23T02:21:28.667Z,3.14
2022-11-23T02:24:39.987Z,3.16
2022-11-23T02:27:46.772Z,3.17
2022-11-23T02:30:51.350Z,3.17
2022-11-23T02:33:52.925Z,3.18
2022-11-23T02:36:56.306Z,3.20
2022-11-23T02:40:00.225Z,3.22
2022-11-23T02:43:02.540Z,3.24
2022-11-23T02:46:05.104Z,3.25
2022-11-23T02:49:06.589Z,3.26
2022-11-23T02:52:09.662Z,3.27
2022-11-23T02:55:11.403Z,3.27
2022-11-23T02:58:13.051Z,3.28
2022-11-23T03:01:14.653Z,3.28
2022-11-23T03:04:16.227Z,3.28
2022-11-23T03:07:17.827Z,3.30
2022-11-23T03:10:20.072Z,3.30
2022-11-23T03:13:21.620Z,3.29
2022-11-23T03:16:23.269Z,3.30
2022-11-23T03:19:24.825Z,3.32
2022-11-23T03:22:26.502Z,3.33
2022-11-23T03:25:28.042Z,3.34
2022-11-23T03:28:29.856Z,3.35
2022-11-23T03:31:31.639Z,3.36
2022-11-23T03:34:33.176Z,3.39
2022-11-23T03:37:34.839Z,3.41
2022-11-23T03:40:36.384Z,3.45
2022-11-23T03:44:02.860Z,3.48
2022-11-23T03:47:04.451Z,3.49
2022-11-23T03:50:06.586Z,3.50
2022-11-23T03:53:08.424Z,3.52
2022-11-23T03:56:10.483Z,3.55
2022-11-23T03:59:12.016Z,3.56
2022-11-23T04:02:13.539Z,3.57
2022-11-23T04:05:15.191Z,3.59
2022-11-23T04:08:16.775Z,3.62
2022-11-23T04:11:18.314Z,3.64
2022-11-23T04:14:19.900Z,3.66
2022-11-23T04:17:21.426Z,3.70
2022-11-23T04:20:23.011Z,3.72
2022-11-23T04:23:24.742Z,3.74
2022-11-23T04:26:26.501Z,3.76
2022-11-23T04:29:28.037Z,3.78
2022-11-23T04:32:29.571Z,3.79
2022-11-23T04:35:31.115Z,3.83
2022-11-23T04:38:32.647Z,3.84
2022-11-23T04:41:34.349Z,3.85
2022-11-23T04:44:35.871Z,3.87
2022-11-23T04:47:37.472Z,3.89
2022-11-23T04:50:40.811Z,3.90
2022-11-23T04:53:42.592Z,3.93
2022-11-23T04:56:44.509Z,3.94
2022-11-23T04:59:46.857Z,3.95
2022-11-23T05:02:48.391Z,3.96
2022-11-23T05:05:49.998Z,3.98
2022-11-23T05:08:51.728Z,3.99
2022-11-23T05:11:53.269Z,4.02
2022-11-23T05:14:54.973Z,4.04
2022-11-23T05:18:04.617Z,4.06
2022-11-23T05:21:06.229Z,4.08
2022-11-23T05:24:07.810Z,4.09
2022-11-23T05:27:09.430Z,4.11
2022-11-23T05:30:11.469Z,4.13
2022-11-23T05:33:13.204Z,4.14
2022-11-23T05:36:14.780Z,4.15
2022-11-23T05:39:16.328Z,4.18
2022-11-23T05:42:18.330Z,4.20
2022-11-23T05:45:19.851Z,4.24
2022-11-23T05:48:21.383Z,4.25
2022-11-23T05:51:22.938Z,4.27
2022-11-23T05:54:24.489Z,4.29
2022-11-23T05:57:26.080Z,4.31
2022-11-23T06:00:27.599Z,4.33
2022-11-23T06:03:29.183Z,4.34
2022-11-23T06:06:30.683Z,4.34
2022-11-23T06:09:32.593Z,4.35
2022-11-23T06:12:34.333Z,4.38
2022-11-23T06:15:35.951Z,4.58
2022-11-23T06:18:37.520Z,4.90
2022-11-23T06:21:39.103Z,5.04
2022-11-23T06:24:41.092Z,5.05
2022-11-23T06:27:42.680Z,5.05
2022-11-23T06:30:44.227Z,5.01
2022-11-23T06:33:45.763Z,4.99
2022-11-23T06:36:47.324Z,4.96
2022-11-23T06:39:48.862Z,4.94
2022-11-23T06:42:50.422Z,4.92
2022-11-23T06:45:51.988Z,4.91
2022-11-23T06:48:53.569Z,4.94
2022-11-23T06:51:55.106Z,4.94
2022-11-23T06:54:56.864Z,4.91
2022-11-23T06:57:59.457Z,4.91
2022-11-23T07:01:02.201Z,4.89
2022-11-23T07:04:04.117Z,4.88
2022-11-23T07:07:08.048Z,4.89
2022-11-23T07:10:10.186Z,4.86
2022-11-23T07:13:12.731Z,4.85
2022-11-23T07:16:14.967Z,4.84
2022-11-23T07:19:16.530Z,4.82
2022-11-23T07:22:18.140Z,4.81
2022-11-23T07:25:19.724Z,4.81
2022-11-23T07:28:21.340Z,4.81
2022-11-23T07:31:22.904Z,4.82
2022-11-23T07:34:24.460Z,4.81
2022-11-23T07:37:25.969Z,4.81
2022-11-23T07:40:27.767Z,4.82
2022-11-23T07:43:29.726Z,4.81
2022-11-23T07:46:31.270Z,4.82
2022-11-23T07:49:33.228Z,4.81
2022-11-23T07:52:36.775Z,4.81
2022-11-23T07:55:38.376Z,4.81
2022-11-23T07:58:39.936Z,4.81
2022-11-23T08:01:41.519Z,4.80
2022-11-23T08:04:43.232Z,4.78
2022-11-23T08:07:45.270Z,4.76
2022-11-23T08:10:51.626Z,4.76
2022-11-23T08:13:55.194Z,4.81
2022-11-23T08:16:56.786Z,5.22
2022-11-23T08:19:58.311Z,5.44
2022-11-23T08:22:59.906Z,5.45
2022-11-23T08:26:06.562Z,5.42
2022-11-23T08:29:10.580Z,5.38
2022-11-23T08:32:12.726Z,5.34
2022-11-23T08:35:14.539Z,5.31
2022-11-23T08:38:16.124Z,5.28
2022-11-23T08:41:20.892Z,5.26
2022-11-23T08:44:22.444Z,5.22
2022-11-23T08:47:24.010Z,5.21
2022-11-23T08:50:25.745Z,5.19
2022-11-23T08:53:28.099Z,5.20
2022-11-23T08:56:29.832Z,5.19
2022-11-23T08:59:31.371Z,5.21
2022-11-23T09:02:33.215Z,5.21
2022-11-23T09:05:37.530Z,5.21
2022-11-23T09:08:39.220Z,5.21
2022-11-23T09:11:40.847Z,5.21
2022-11-23T09:14:42.383Z,5.21
2022-11-23T09:17:44.130Z,5.21
2022-11-23T09:20:45.644Z,5.47
2022-11-23T09:23:47.177Z,5.48
2022-11-23T09:26:48.743Z,5.48
2022-11-23T09:29:50.367Z,5.45
2022-11-23T09:32:51.955Z,5.43
2022-11-23T09:36:01.202Z,5.39
2022-11-23T09:39:02.724Z,5.37
2022-11-23T09:42:19.289Z,5.36
2022-11-23T09:45:37.927Z,5.34
2022-11-23T09:49:03.401Z,5.35
2022-11-23T09:52:15.196Z,5.35
2022-11-23T09:55:32.005Z,5.37
2022-11-23T09:58:39.710Z,5.39
2022-11-23T10:01:41.544Z,5.40
2022-11-23T10:04:44.176Z,5.43
2022-11-23T10:08:10.361Z,5.69
2022-11-23T10:11:23.027Z,5.79
2022-11-23T10:15:02.958Z,5.82
2022-11-23T10:18:25.446Z,5.85
2022-11-23T10:21:48.600Z,5.88
2022-11-23T10:24:52.466Z,5.95
2022-11-23T10:28:06.644Z,6.00
2022-11-23T10:31:21.380Z,6.03
2022-11-23T10:35:04.667Z,6.09
2022-11-23T10:38:20.134Z,6.15
2022-11-23T10:41:21.698Z,6.20
2022-11-23T10:44:39.184Z,6.23
2022-11-23T10:47:48.860Z,6.23
2022-11-23T10:50:50.448Z,6.24
2022-11-23T10:54:03.656Z,6.26
2022-11-23T10:57:28.523Z,6.26
2022-11-23T11:00:31.407Z,6.26
2022-11-23T11:03:35.226Z,6.27
2022-11-23T11:06:36.906Z,6.30
2022-11-23T11:09:38.749Z,6.52
2022-11-23T11:12:51.636Z,6.59
2022-11-23T11:15:56.002Z,6.59
2022-11-23T11:18:57.972Z,6.61
2022-11-23T11:22:01.981Z,6.60
2022-11-23T11:25:06.306Z,6.61
2022-11-23T11:28:37.496Z,6.62
2022-11-23T11:32:16.161Z,6.63
2022-11-23T11:35:39.057Z,6.64
2022-11-23T11:39:07.705Z,6.64
2022-11-23T11:42:16.631Z,6.67
2022-11-23T11:45:28.047Z,6.69
2022-11-23T11:48:46.049Z,6.74
2022-11-23T11:51:54.431Z,6.76
2022-11-23T11:55:01.339Z,6.78
2022-11-23T11:58:09.877Z,6.81
2022-11-23T12:01:38.248Z,6.83
2022-11-23T12:04:59.358Z,6.83
2022-11-23T12:08:33.123Z,6.85
2022-11-23T12:11:36.675Z,6.85
2022-11-23T12:14:38.253Z,6.86
2022-11-23T12:17:45.978Z,6.86
2022-11-23T12:21:03.434Z,6.88
2022-11-23T12:24:20.639Z,6.90
2022-11-23T12:27:52.936Z,6.93
2022-11-23T12:31:02.811Z,6.94
2022-11-23T12:34:40.852Z,6.95
2022-11-23T12:38:14.403Z,7.08
2022-11-23T12:41:51.615Z,7.46
2022-11-23T12:45:21.743Z,7.57
2022-11-23T12:48:41.996Z,7.54
2022-11-23T12:52:27.264Z,7.47
2022-11-23T12:55:37.114Z,7.38
2022-11-23T12:58:40.587Z,7.32
2022-11-23T13:01:49.592Z,7.28
2022-11-23T13:05:03.302Z,7.27
2022-11-23T13:08:23.450Z,7.25
2022-11-23T13:11:43.181Z,7.22
2022-11-23T13:15:06.330Z,7.22
2022-11-23T13:18:53.465Z,7.27
2022-11-23T13:21:55.601Z,7.25
2022-11-23T13:25:12.264Z,7.24
2022-11-23T13:28:31.994Z,7.25
2022-11-23T13:31:35.946Z,7.26
2022-11-23T13:34:46.696Z,7.28
2022-11-23T13:37:57.408Z,7.27
2022-11-23T13:40:59.050Z,7.26
2022-11-23T13:44:33.442Z,7.21
2022-11-23T13:47:38.327Z,7.18
2022-11-23T13:50:48.249Z,7.15
2022-11-23T13:54:00.646Z,7.10
2022-11-23T13:57:12.407Z,7.08
2022-11-23T14:00:46.285Z,7.05
2022-11-23T14:03:57.075Z,7.03
2022-11-23T14:06:58.644Z,7.01
2022-11-23T14:10:21.117Z,6.99
2022-11-23T14:13:28.756Z,7.01
2022-11-23T14:17:04.811Z,7.03
2022-11-23T14:20:28.325Z,6.99
2022-11-23T14:23:41.838Z,6.94
2022-11-23T14:26:51.871Z,6.91
2022-11-23T14:30:05.660Z,6.88
2022-11-23T14:33:16.387Z,6.85
2022-11-23T14:36:18.045Z,6.82
2022-11-23T14:39:57.480Z,6.80
2022-11-23T14:43:00.915Z,6.76
2022-11-23T14:46:07.120Z,6.75
2022-11-23T14:49:15.098Z,6.72
2022-11-23T14:52:21.154Z,6.74
2022-11-23T14:55:29.507Z,6.75
2022-11-23T14:58:32.897Z,6.69
2022-11-23T15:01:35.432Z,6.63
2022-11-23T15:04:55.761Z,6.55
2022-11-23T15:08:16.897Z,6.45
2022-11-23T15:11:23.019Z,6.37
2022-11-23T15:14:27.323Z,6.30
2022-11-23T15:17:29.106Z,6.21
2022-11-23T15:20:40.548Z,6.17
2022-11-23T15:23:47.687Z,6.09
2022-11-23T15:26:49.683Z,6.02
2022-11-23T15:29:57.270Z,5.96
2022-11-23T15:33:00.149Z,5.87
2022-11-23T15:36:03.029Z,5.80
2022-11-23T15:39:08.692Z,5.83
2022-11-23T15:42:22.604Z,5.86
2022-11-23T15:45:43.124Z,5.84
2022-11-23T15:48:49.514Z,6.01
2022-11-23T15:51:52.761Z,6.01
2022-11-23T15:54:54.823Z,5.92
2022-11-23T15:57:57.162Z,5.85
2022-11-23T16:01:11.537Z,5.79
2022-11-23T16:04:32.452Z,5.77
2022-11-23T16:07:49.101Z,5.77
2022-11-23T16:10:54.814Z,5.71
2022-11-23T16:14:20.609Z,5.64
2022-11-23T16:17:24.644Z,5.58
2022-11-23T16:20:27.751Z,5.54
2022-11-23T16:23:36.082Z,5.47
2022-11-23T16:26:37.682Z,5.42
2022-11-23T16:29:40.370Z,5.38
2022-11-23T16:32:41.931Z,5.35
2022-11-23T16:35:44.354Z,5.30
2022-11-23T16:38:45.964Z,5.25
2022-11-23T16:41:47.660Z,5.20
2022-11-23T16:44:49.220Z,5.17
2022-11-23T16:48:02.029Z,5.14
2022-11-23T16:51:03.804Z,5.14
2022-11-23T16:54:13.323Z,5.14
2022-11-23T16:57:23.648Z,5.15
2022-11-23T17:00:25.348Z,5.14
2022-11-23T17:03:27.009Z,5.14
2022-11-23T17:06:28.632Z,5.14
2022-11-23T17:09:30.188Z,5.14
2022-11-23T17:12:31.785Z,5.12
2022-11-23T17:15:33.370Z,5.10
2022-11-23T17:18:34.931Z,5.10
2022-11-23T17:21:36.445Z,5.11
2022-11-23T17:24:38.019Z,5.09
2022-11-23T17:27:42.033Z,5.05
2022-11-23T17:30:43.815Z,5.02
2022-11-23T17:33:45.498Z,4.98
2022-11-23T17:36:49.557Z,4.95
2022-11-23T17:39:51.264Z,4.90
2022-11-23T17:42:52.792Z,4.84
2022-11-23T17:45:54.435Z,4.74
2022-11-23T17:48:57.816Z,4.67
2022-11-23T17:51:59.359Z,4.61
2022-11-23T17:55:00.932Z,4.56
2022-11-23T17:58:02.566Z,4.52
2022-11-23T18:01:04.471Z,4.49
2022-11-23T18:04:06.065Z,4.48
2022-11-23T18:07:10.594Z,4.51
2022-11-23T18:10:15.970Z,4.52
2022-11-23T18:13:17.796Z,4.49
2022-11-23T18:16:20.448Z,4.45
2022-11-23T18:19:22.694Z,4.39
2022-11-23T18:22:24.258Z,4.35
2022-11-23T18:25:26.115Z,4.27
2022-11-23T18:28:28.596Z,4.20
2022-11-23T18:31:30.202Z,4.13
2022-11-23T18:34:31.773Z,4.06
2022-11-23T18:37:33.306Z,4.02
2022-11-23T18:40:35.087Z,3.95
2022-11-23T18:43:36.579Z,3.91
2022-11-23T18:46:38.244Z,3.86
2022-11-23T18:49:39.779Z,3.81
2022-11-23T18:52:41.323Z,3.79
2022-11-23T18:55:42.873Z,3.78
2022-11-23T18:58:45.778Z,3.76
2022-11-23T19:01:47.471Z,3.74
2022-11-23T19:04:49.117Z,3.75
2022-11-23T19:07:51.535Z,3.76
2022-11-23T19:10:53.233Z,3.77
2022-11-23T19:14:00.555Z,3.80
2022-11-23T19:17:02.202Z,3.83
2022-11-23T19:20:06.039Z,3.87
2022-11-23T19:23:07.578Z,3.93
2022-11-23T19:26:09.408Z,4.02
2022-11-23T19:29:11.141Z,4.08
2022-11-23T19:32:12.680Z,4.15
2022-11-23T19:35:14.392Z,4.21
2022-11-23T19:38:17.680Z,4.27
2022-11-23T19:41:22.961Z,4.32
2022-11-23T19:44:26.917Z,4.37
2022-11-23T19:47:29.708Z,4.41
2022-11-23T19:50:31.272Z,4.45
2022-11-23T19:53:35.128Z,4.47
2022-11-23T19:56:39.705Z,4.51
2022-11-23T19:59:41.230Z,4.56
2022-11-23T20:02:42.836Z,4.60
2022-11-23T20:06:02.314Z,4.64
2022-11-23T20:09:06.564Z,4.66
2022-11-23T20:12:08.252Z,4.67
2022-11-23T20:15:10.131Z,4.70
2022-11-23T20:18:11.703Z,4.71
2022-11-23T20:21:17.910Z,4.73
2022-11-23T20:24:19.519Z,4.75
2022-11-23T20:27:21.475Z,4.77
2022-11-23T20:30:23.001Z,4.78
2022-11-23T20:33:24.545Z,4.78
2022-11-23T20:36:31.230Z,4.79
2022-11-23T20:39:32.890Z,4.82
2022-11-23T20:42:34.455Z,4.85
2022-11-23T20:45:35.988Z,4.87
2022-11-23T20:48:38.021Z,4.87
2022-11-23T20:51:39.536Z,4.88
2022-11-23T20:54:41.107Z,4.89
2022-11-23T20:57:42.634Z,4.91
2022-11-23T21:00:48.740Z,4.90
2022-11-23T21:03:55.269Z,4.89
2022-11-23T21:06:57.031Z,4.89
2022-11-23T21:09:58.567Z,4.88
2022-11-23T21:13:29.782Z,4.88
2022-11-23T21:16:32.205Z,4.86
2022-11-23T21:19:36.096Z,4.82
2022-11-23T21:22:37.634Z,4.82
2022-11-23T21:25:39.473Z,4.80
2022-11-23T21:28:41.436Z,4.79
2022-11-23T21:31:44.670Z,4.80
2022-11-23T21:34:46.332Z,4.85
2022-11-23T21:37:49.176Z,4.86
2022-11-23T21:40:56.849Z,4.84
2022-11-23T21:43:58.496Z,4.79
2022-11-23T21:47:00.202Z,4.77
2022-11-23T21:50:01.865Z,4.76
2022-11-23T21:53:03.435Z,4.78
2022-11-23T21:56:08.398Z,4.80
2022-11-23T21:59:10.424Z,4.79
2022-11-23T22:02:12.182Z,4.82
2022-11-23T22:05:14.421Z,4.83
2022-11-23T22:08:31.396Z,4.84
2022-11-23T22:11:34.768Z,4.86
2022-11-23T22:14:36.306Z,4.86
2022-11-23T22:17:37.900Z,4.86
2022-11-23T22:20:39.523Z,4.86
2022-11-23T22:23:41.436Z,4.87
2022-11-23T22:26:44.092Z,4.88
2022-11-23T22:29:45.635Z,4.86
2022-11-23T22:32:47.500Z,4.86
2022-11-23T22:35:49.161Z,4.86
2022-11-23T22:39:01.254Z,4.85
2022-11-23T22:42:03.787Z,4.82
2022-11-23T22:45:05.746Z,4.85
2022-11-23T22:48:07.387Z,4.87
2022-11-23T22:51:14.131Z,4.88
2022-11-23T22:54:15.674Z,4.90
2022-11-23T22:57:17.226Z,4.89
2022-11-23T23:00:19.127Z,4.89
2022-11-23T23:03:20.789Z,4.90
2022-11-23T23:06:24.819Z,4.91
2022-11-23T23:09:26.435Z,4.90
2022-11-23T23:12:28.032Z,4.90
2022-11-23T23:15:29.613Z,4.93
2022-11-23T23:18:32.039Z,4.93
2022-11-23T23:21:33.610Z,4.91
2022-11-23T23:24:35.535Z,4.91
2022-11-23T23:27:37.209Z,4.92
2022-11-23T23:30:38.794Z,4.90
2022-11-23T23:33:40.884Z,4.89
2022-11-23T23:36:42.503Z,4.90
2022-11-23T23:39:44.051Z,4.90
2022-11-23T23:42:46.125Z,4.87
2022-11-23T23:45:47.740Z,4.82
2022-11-23T23:48:49.306Z,4.78
2022-11-23T23:51:51.825Z,4.73
2022-11-23T23:54:53.463Z,4.69
2022-11-23T23:57:55.027Z,4.65
